TimeCST,TemperatureF,Dew PointF,Humidity,Sea Level PressureIn,VisibilityMPH,Wind Direction,Wind SpeedMPH,Gust SpeedMPH,PrecipitationIn,Events,Conditions,WindDirDegrees,DateUTC
12:08 AM,39.9,12.0,32,-9999,-9999.0,SW,9.2,-,N/A,,Unknown,220,2012-12-13 06:08:00
12:28 AM,39.9,13.1,33,-9999,-9999.0,SSW,6.9,-,N/A,,Unknown,210,2012-12-13 06:28:00
12:48 AM,37.9,12.0,35,-9999,-9999.0,SSW,8.1,-,N/A,,Unknown,210,2012-12-13 06:48:00
1:08 AM,36.0,12.0,37,-9999,-9999.0,SSW,6.9,-,N/A,,Unknown,200,2012-12-13 07:08:00
1:28 AM,33.1,9.1,37,-9999,-9999.0,SSW,9.2,-,N/A,,Unknown,200,2012-12-13 07:28:00
1:48 AM,34.0,11.1,39,-9999,-9999.0,SW,9.2,-,N/A,,Unknown,230,2012-12-13 07:48:00
2:08 AM,37.9,13.1,36,-9999,-9999.0,SW,9.2,-,N/A,,Unknown,230,2012-12-13 08:08:00
2:28 AM,37.0,12.0,36,-9999,-9999.0,SW,11.5,-,N/A,,Unknown,230,2012-12-13 08:28:00
2:48 AM,36.0,12.0,37,-9999,-9999.0,SW,10.4,-,N/A,,Unknown,230,2012-12-13 08:48:00
3:08 AM,35.1,11.1,37,-9999,-9999.0,WSW,11.5,-,N/A,,Unknown,240,2012-12-13 09:08:00
3:28 AM,35.1,11.1,37,-9999,-9999.0,WSW,9.2,-,N/A,,Unknown,240,2012-12-13 09:28:00
3:48 AM,35.1,11.1,37,-9999,-9999.0,WSW,12.7,-,N/A,,Unknown,240,2012-12-13 09:48:00
4:08 AM,37.0,11.1,34,-9999,-9999.0,West,11.5,-,N/A,,Unknown,260,2012-12-13 10:08:00
4:28 AM,37.0,12.0,36,-9999,-9999.0,West,10.4,-,N/A,,Unknown,260,2012-12-13 10:28:00
4:48 AM,37.0,11.1,34,-9999,-9999.0,West,9.2,-,N/A,,Unknown,260,2012-12-13 10:48:00
5:08 AM,35.1,10.0,35,-9999,-9999.0,West,8.1,-,N/A,,Unknown,260,2012-12-13 11:08:00
5:28 AM,37.0,11.1,34,-9999,-9999.0,West,9.2,-,N/A,,Unknown,260,2012-12-13 11:28:00
5:48 AM,37.9,12.0,35,-9999,-9999.0,West,9.2,-,N/A,,Unknown,260,2012-12-13 11:48:00
6:08 AM,37.0,11.1,34,-9999,-9999.0,West,5.8,-,N/A,,Unknown,270,2012-12-13 12:08:00
6:28 AM,36.0,8.1,31,-9999,-9999.0,NNW,10.4,-,N/A,,Unknown,340,2012-12-13 12:28:00
6:48 AM,30.9,7.2,37,-9999,-9999.0,NW,8.1,-,N/A,,Unknown,320,2012-12-13 12:48:00
7:08 AM,34.0,9.1,36,-9999,-9999.0,NW,5.8,-,N/A,,Unknown,310,2012-12-13 13:08:00
7:28 AM,35.1,9.1,34,-9999,-9999.0,WNW,8.1,-,N/A,,Unknown,300,2012-12-13 13:28:00
7:48 AM,37.0,10.0,33,-9999,-9999.0,WNW,6.9,-,N/A,,Unknown,300,2012-12-13 13:48:00
8:08 AM,36.0,10.0,34,-9999,-9999.0,West,6.9,-,N/A,,Unknown,280,2012-12-13 14:08:00
8:28 AM,34.0,9.1,36,-9999,-9999.0,West,6.9,-,N/A,,Unknown,260,2012-12-13 14:28:00
8:48 AM,36.0,11.1,36,-9999,-9999.0,West,6.9,-,N/A,,Unknown,270,2012-12-13 14:48:00
9:08 AM,39.9,14.0,35,-9999,-9999.0,WNW,4.6,-,N/A,,Unknown,300,2012-12-13 15:08:00
9:28 AM,41.0,15.1,35,-9999,-9999.0,West,5.8,-,N/A,,Unknown,280,2012-12-13 15:28:00
9:48 AM,44.1,16.2,33,-9999,-9999.0,WNW,5.8,-,N/A,,Unknown,290,2012-12-13 15:48:00
10:08 AM,46.0,16.2,30,-9999,-9999.0,WNW,5.8,-,N/A,,Unknown,300,2012-12-13 16:08:00
10:28 AM,50.0,17.1,27,-9999,-9999.0,NW,5.8,-,N/A,,Unknown,310,2012-12-13 16:28:00
10:48 AM,51.1,18.1,27,-9999,-9999.0,NW,4.6,-,N/A,,Unknown,310,2012-12-13 16:48:00
11:08 AM,54.0,19.0,25,-9999,-9999.0,NW,4.6,-,N/A,,Unknown,310,2012-12-13 17:08:00
11:28 AM,55.9,21.0,26,-9999,-9999.0,WNW,3.5,-,N/A,,Unknown,290,2012-12-13 17:28:00
11:48 AM,57.9,22.1,25,-9999,-9999.0,West,3.5,-,N/A,,Unknown,260,2012-12-13 17:48:00
12:08 PM,60.1,22.1,23,-9999,-9999.0,WSW,1.2,-,N/A,,Unknown,250,2012-12-13 18:08:00
12:28 PM,62.1,22.1,22,-9999,-9999.0,SW,2.3,-,N/A,,Unknown,220,2012-12-13 18:28:00
12:48 PM,64.9,20.1,18,-9999,-9999.0,South,6.9,-,N/A,,Unknown,170,2012-12-13 18:48:00
1:08 PM,64.9,17.1,16,-9999,-9999.0,South,4.6,-,N/A,,Unknown,180,2012-12-13 19:08:00
1:28 PM,64.9,16.2,15,-9999,-9999.0,South,6.9,-,N/A,,Unknown,170,2012-12-13 19:28:00
1:48 PM,66.0,16.2,15,-9999,-9999.0,South,4.6,-,N/A,,Unknown,170,2012-12-13 19:48:00
2:08 PM,66.9,16.2,14,-9999,-9999.0,SSE,4.6,-,N/A,,Unknown,160,2012-12-13 20:08:00
2:28 PM,66.9,16.2,14,-9999,-9999.0,South,8.1,-,N/A,,Unknown,170,2012-12-13 20:28:00
2:48 PM,66.9,15.1,14,-9999,-9999.0,South,5.8,-,N/A,,Unknown,180,2012-12-13 20:48:00
3:08 PM,66.9,15.1,14,-9999,-9999.0,SSE,6.9,-,N/A,,Unknown,160,2012-12-13 21:08:00
3:28 PM,66.9,14.0,13,-9999,-9999.0,South,8.1,-,N/A,,Unknown,170,2012-12-13 21:28:00
3:48 PM,66.0,14.0,13,-9999,-9999.0,South,12.7,-,N/A,,Unknown,170,2012-12-13 21:48:00
4:08 PM,66.0,15.1,14,-9999,-9999.0,South,9.2,-,N/A,,Unknown,170,2012-12-13 22:08:00
5:08 PM,57.9,14.0,18,-9999,-9999.0,South,8.1,-,N/A,,Unknown,170,2012-12-13 23:08:00
5:28 PM,55.0,14.0,20,-9999,-9999.0,South,8.1,-,N/A,,Unknown,170,2012-12-13 23:28:00
6:48 PM,48.0,12.0,24,-9999,-9999.0,South,10.4,-,N/A,,Unknown,180,2012-12-14 00:48:00
7:08 PM,48.0,12.0,24,-9999,-9999.0,South,11.5,-,N/A,,Unknown,190,2012-12-14 01:08:00
7:28 PM,46.9,12.0,24,-9999,-9999.0,South,11.5,-,N/A,,Unknown,190,2012-12-14 01:28:00
7:48 PM,48.0,12.0,24,-9999,-9999.0,South,12.7,-,N/A,,Unknown,190,2012-12-14 01:48:00
8:08 PM,48.9,12.0,23,-9999,-9999.0,SSW,12.7,-,N/A,,Unknown,200,2012-12-14 02:08:00
8:28 PM,50.0,13.1,23,-9999,-9999.0,SSW,12.7,-,N/A,,Unknown,200,2012-12-14 02:28:00
8:48 PM,50.0,13.1,23,-9999,-9999.0,SSW,11.5,-,N/A,,Unknown,200,2012-12-14 02:48:00
9:08 PM,48.0,13.1,25,-9999,-9999.0,SSW,11.5,-,N/A,,Unknown,200,2012-12-14 03:08:00
9:28 PM,46.9,13.1,26,-9999,-9999.0,SSW,11.5,-,N/A,,Unknown,200,2012-12-14 03:28:00
9:48 PM,46.9,13.1,26,-9999,-9999.0,SSW,12.7,-,N/A,,Unknown,210,2012-12-14 03:48:00
10:08 PM,48.0,14.0,26,-9999,-9999.0,SSW,11.5,-,N/A,,Unknown,210,2012-12-14 04:08:00
10:28 PM,45.0,13.1,28,-9999,-9999.0,SSW,10.4,-,N/A,,Unknown,210,2012-12-14 04:28:00
10:48 PM,48.9,15.1,26,-9999,-9999.0,SW,13.8,-,N/A,,Unknown,230,2012-12-14 04:48:00
11:08 PM,46.0,15.1,29,-9999,-9999.0,SW,10.4,-,N/A,,Unknown,230,2012-12-14 05:08:00
11:28 PM,43.0,14.0,31,-9999,-9999.0,WSW,8.1,-,N/A,,Unknown,250,2012-12-14 05:28:00
11:48 PM,43.0,15.1,32,-9999,-9999.0,WSW,8.1,-,N/A,,Unknown,250,2012-12-14 05:48:00